Time;durP1;ratioP1;P1;durP2;ratioP2;P2;SDS_P1;SDS_P2;PMS_P1;PMS_P2;Temp;Humidity;BMP_temperature;BMP_pressure;BME280_temperature;BME280_humidity;BME280_pressure;Samples;Min_cycle;Max_cycle;Signal;HPM_P1;HPM_P2
2021/09/09 00:02:14;;;;;;;4.28;2.85;;;25.10;50.50;;;;;;5046649;28;20094;-58
2021/09/09 00:04:40;;;;;;;3.67;3.08;;;25.00;50.40;;;;;;5049178;28;20750;-58
2021/09/09 00:07:06;;;;;;;3.67;2.80;;;25.00;50.40;;;;;;5045572;28;20539;-54
2021/09/09 00:09:31;;;;;;;3.50;2.85;;;25.00;50.40;;;;;;5029704;28;20367;-61
2021/09/09 00:11:57;;;;;;;4.05;2.88;;;25.00;50.40;;;;;;5041223;28;20036;-61
2021/09/09 00:14:23;;;;;;;3.92;3.03;;;25.00;50.40;;;;;;5034503;28;20115;-57
2021/09/09 00:16:48;;;;;;;3.63;2.90;;;25.00;50.40;;;;;;5045601;28;20033;-59
2021/09/09 00:19:14;;;;;;;3.90;3.13;;;25.00;50.50;;;;;;5039417;28;20045;-57
2021/09/09 00:21:40;;;;;;;4.00;3.13;;;25.00;50.50;;;;;;5044552;28;20097;-57
2021/09/09 00:24:06;;;;;;;4.38;2.85;;;25.00;50.50;;;;;;5035482;28;20030;-58
2021/09/09 00:26:31;;;;;;;4.20;2.88;;;25.00;50.50;;;;;;5038003;28;20116;-58
2021/09/09 00:28:57;;;;;;;3.80;3.00;;;25.00;50.50;;;;;;5045623;28;20083;-49
2021/09/09 00:31:22;;;;;;;3.63;2.85;;;25.00;50.50;;;;;;5034939;28;20068;-60
2021/09/09 00:33:48;;;;;;;4.93;3.20;;;25.00;50.50;;;;;;5041572;28;20033;-61
2021/09/09 00:36:13;;;;;;;4.25;3.15;;;25.00;50.50;;;;;;5033841;28;20039;-59
2021/09/09 00:38:39;;;;;;;3.72;3.03;;;25.00;50.50;;;;;;5045679;28;20041;-57
2021/09/09 00:41:05;;;;;;;3.33;2.80;;;25.00;50.50;;;;;;5040304;28;20033;-57
2021/09/09 00:43:31;;;;;;;3.33;2.78;;;25.00;50.60;;;;;;5038082;28;20050;-59
2021/09/09 00:45:57;;;;;;;3.72;2.80;;;24.90;50.50;;;;;;5038740;28;20100;-61
2021/09/09 00:48:24;;;;;;;3.65;2.67;;;24.90;50.50;;;;;;5040462;28;20052;-59
2021/09/09 00:50:52;;;;;;;4.20;2.83;;;24.90;50.50;;;;;;5047892;28;20142;-48
2021/09/09 00:53:19;;;;;;;4.22;3.03;;;24.90;50.60;;;;;;5045915;28;20029;-50
2021/09/09 00:55:47;;;;;;;3.83;3.00;;;24.90;50.60;;;;;;5042172;28;20025;-60
2021/09/09 00:58:13;;;;;;;3.60;3.03;;;24.90;50.60;;;;;;5041302;28;20684;-58
2021/09/09 01:00:39;;;;;;;3.95;2.95;;;24.90;50.60;;;;;;5033354;28;20044;-58
2021/09/09 01:03:09;;;;;;;4.40;2.70;;;24.90;50.60;;;;;;5033200;28;20109;-55
2021/09/09 01:05:36;;;;;;;3.17;2.70;;;24.90;50.60;;;;;;5037538;28;20027;-59
2021/09/09 01:08:02;;;;;;;3.30;3.00;;;24.90;50.60;;;;;;5044524;28;20025;-56
2021/09/09 01:10:28;;;;;;;3.40;2.97;;;24.90;50.60;;;;;;5035269;28;20609;-61
2021/09/09 01:12:54;;;;;;;3.17;2.60;;;24.90;50.60;;;;;;5031432;28;20029;-58
2021/09/09 01:15:21;;;;;;;3.35;2.70;;;24.90;50.60;;;;;;5049062;28;20063;-56
2021/09/09 01:17:47;;;;;;;3.25;2.88;;;24.90;50.60;;;;;;5042864;28;20673;-57
2021/09/09 01:20:12;;;;;;;3.45;2.80;;;24.90;50.60;;;;;;5037431;28;20053;-57
2021/09/09 01:22:38;;;;;;;3.35;2.58;;;24.80;50.60;;;;;;5031786;28;20060;-55
2021/09/09 01:25:05;;;;;;;3.78;2.97;;;24.80;50.60;;;;;;5047023;28;20045;-60
2021/09/09 01:27:30;;;;;;;3.20;2.60;;;24.80;50.60;;;;;;5039890;28;20366;-60
2021/09/09 01:29:56;;;;;;;3.10;2.55;;;24.80;50.60;;;;;;5044125;28;20036;-59
2021/09/09 01:32:22;;;;;;;3.25;2.65;;;24.80;50.60;;;;;;5042539;28;20037;-60
2021/09/09 01:34:48;;;;;;;3.38;2.63;;;24.80;50.60;;;;;;5034208;28;20503;-53
2021/09/09 01:37:14;;;;;;;2.92;2.50;;;24.80;50.60;;;;;;5034391;28;20030;-60
2021/09/09 01:39:45;;;;;;;3.70;2.60;;;24.80;50.60;;;;;;5034194;28;20048;-54
2021/09/09 01:42:11;;;;;;;4.32;2.90;;;24.80;50.60;;;;;;5038346;28;20045;-50
2021/09/09 01:44:38;;;;;;;3.50;2.83;;;24.80;50.70;;;;;;5038573;28;20041;-52
2021/09/09 01:47:03;;;;;;;3.35;2.58;;;24.80;50.70;;;;;;5043234;28;20032;-60
2021/09/09 01:49:29;;;;;;;3.30;2.70;;;24.80;50.70;;;;;;5031972;28;20728;-54
2021/09/09 01:51:55;;;;;;;3.35;2.92;;;24.80;50.70;;;;;;5037798;28;20029;-59
2021/09/09 01:54:22;;;;;;;3.08;2.60;;;24.80;50.70;;;;;;5039352;28;20155;-54
2021/09/09 01:56:48;;;;;;;3.28;2.80;;;24.80;50.70;;;;;;5043773;28;20072;-59
2021/09/09 01:59:13;;;;;;;3.20;2.75;;;24.80;50.70;;;;;;5045282;28;20532;-58
2021/09/09 02:01:39;;;;;;;3.42;2.85;;;24.80;50.70;;;;;;5039823;28;20103;-57
2021/09/09 02:04:05;;;;;;;3.33;2.83;;;24.80;50.70;;;;;;5036657;28;20175;-56
2021/09/09 02:06:32;;;;;;;3.80;2.72;;;24.70;50.70;;;;;;5031365;28;20085;-58
2021/09/09 02:08:59;;;;;;;3.17;2.72;;;24.70;50.70;;;;;;5043393;28;20043;-54
2021/09/09 02:11:25;;;;;;;3.53;2.60;;;24.80;50.70;;;;;;5038891;28;20029;-58
2021/09/09 02:13:52;;;;;;;3.20;2.67;;;24.70;50.70;;;;;;5037476;28;20362;-50
2021/09/09 02:16:18;;;;;;;3.60;2.53;;;24.80;50.80;;;;;;5046244;28;20036;-53
2021/09/09 02:18:43;;;;;;;3.10;2.50;;;24.70;50.70;;;;;;5036294;28;20029;-60
2021/09/09 02:21:09;;;;;;;3.13;2.28;;;24.70;50.70;;;;;;5040084;28;20598;-58
2021/09/09 02:23:35;;;;;;;3.53;2.90;;;24.70;50.70;;;;;;5028381;28;20394;-58
2021/09/09 02:26:00;;;;;;;3.20;2.78;;;24.70;50.80;;;;;;5040154;28;20052;-59
2021/09/09 02:28:26;;;;;;;3.42;2.63;;;24.70;50.80;;;;;;5043875;28;20508;-59
2021/09/09 02:30:51;;;;;;;3.10;2.53;;;24.70;50.80;;;;;;5042124;28;20104;-61
2021/09/09 02:33:17;;;;;;;3.33;2.80;;;24.70;50.80;;;;;;5045176;28;20543;-48
2021/09/09 02:35:43;;;;;;;3.00;2.60;;;24.70;51.30;;;;;;5038941;28;20048;-48
2021/09/09 02:38:09;;;;;;;3.17;2.60;;;24.60;50.70;;;;;;5045424;28;20068;-57
2021/09/09 02:40:34;;;;;;;4.03;2.50;;;24.70;50.80;;;;;;5042286;28;20029;-55
2021/09/09 02:43:00;;;;;;;3.28;2.65;;;24.70;51.40;;;;;;5046063;28;20029;-51
2021/09/09 02:45:26;;;;;;;3.20;2.60;;;24.60;50.80;;;;;;5039401;28;20013;-58
2021/09/09 02:47:51;;;;;;;2.95;2.40;;;24.60;50.80;;;;;;5030723;28;20045;-54
2021/09/09 02:50:17;;;;;;;3.40;2.60;;;24.60;50.80;;;;;;5037194;28;20061;-59
2021/09/09 02:52:43;;;;;;;3.10;2.35;;;24.60;50.80;;;;;;5043276;28;20061;-49
2021/09/09 02:55:10;;;;;;;3.35;2.65;;;24.60;50.80;;;;;;5036134;28;20117;-54
2021/09/09 02:57:37;;;;;;;2.90;2.45;;;24.60;50.80;;;;;;5043127;28;20364;-60
2021/09/09 03:00:04;;;;;;;3.00;2.40;;;24.60;50.80;;;;;;5040587;28;20029;-60
2021/09/09 03:02:30;;;;;;;3.30;2.60;;;24.60;50.80;;;;;;5028940;28;20447;-59
2021/09/09 03:04:55;;;;;;;3.03;2.55;;;24.60;50.80;;;;;;5043413;28;20054;-58
2021/09/09 03:07:21;;;;;;;3.15;2.60;;;24.60;50.80;;;;;;5038103;28;20024;-54
2021/09/09 03:09:47;;;;;;;2.95;2.35;;;24.60;50.80;;;;;;5028627;28;20083;-50
2021/09/09 03:12:12;;;;;;;3.30;2.72;;;24.60;50.80;;;;;;5035412;28;20393;-59
2021/09/09 03:14:38;;;;;;;3.03;2.40;;;24.60;50.80;;;;;;5045824;28;20035;-53
2021/09/09 03:17:04;;;;;;;3.08;2.33;;;24.60;50.90;;;;;;5028040;28;20076;-55
2021/09/09 03:19:30;;;;;;;3.03;2.40;;;24.60;50.90;;;;;;5034930;28;20033;-58
2021/09/09 03:21:55;;;;;;;3.00;2.40;;;24.60;50.90;;;;;;5041851;28;20511;-53
2021/09/09 03:24:21;;;;;;;2.90;2.40;;;24.60;50.90;;;;;;5041582;28;20409;-56
2021/09/09 03:26:46;;;;;;;2.97;2.55;;;24.60;50.90;;;;;;5035659;28;20029;-56
2021/09/09 03:29:12;;;;;;;3.25;2.60;;;24.50;50.80;;;;;;5044722;28;20047;-59
2021/09/09 03:31:38;;;;;;;3.03;2.40;;;24.50;50.80;;;;;;5041725;28;20187;-52
2021/09/09 03:34:03;;;;;;;2.63;2.05;;;24.60;50.90;;;;;;5045550;28;20025;-56
2021/09/09 03:36:29;;;;;;;3.00;2.33;;;24.50;50.90;;;;;;5039062;28;20037;-56
2021/09/09 03:38:55;;;;;;;3.90;2.40;;;24.50;50.90;;;;;;5043316;28;20033;-58
2021/09/09 03:41:21;;;;;;;3.10;2.42;;;24.50;50.90;;;;;;5027662;28;20061;-57
2021/09/09 03:43:46;;;;;;;3.22;2.63;;;24.50;50.90;;;;;;5032684;28;20123;-53
2021/09/09 03:46:12;;;;;;;3.25;2.45;;;24.50;50.90;;;;;;5036644;28;20105;-58
2021/09/09 03:48:38;;;;;;;3.28;2.60;;;24.50;50.90;;;;;;5045770;28;20028;-53
2021/09/09 03:51:04;;;;;;;3.17;2.50;;;24.50;50.90;;;;;;5025853;28;20060;-60
2021/09/09 03:53:29;;;;;;;3.40;2.53;;;24.50;50.90;;;;;;5037177;28;20095;-61
2021/09/09 03:55:55;;;;;;;2.78;2.30;;;24.50;50.90;;;;;;5035528;28;20056;-54
2021/09/09 03:58:21;;;;;;;3.35;2.30;;;24.50;51.00;;;;;;5045059;28;20048;-60
2021/09/09 04:00:46;;;;;;;2.65;2.10;;;24.50;51.00;;;;;;5032620;28;20049;-55
2021/09/09 04:03:12;;;;;;;3.15;2.50;;;24.50;51.00;;;;;;5030315;28;20026;-58
2021/09/09 04:05:38;;;;;;;3.00;2.50;;;24.40;50.90;;;;;;5045285;28;20025;-57
2021/09/09 04:08:03;;;;;;;2.95;2.30;;;24.40;50.90;;;;;;5041506;28;20040;-58
2021/09/09 04:10:29;;;;;;;2.78;2.30;;;24.40;50.90;;;;;;5041225;28;20025;-52
2021/09/09 04:12:55;;;;;;;3.15;2.40;;;24.50;51.00;;;;;;5034665;28;20040;-57
2021/09/09 04:15:21;;;;;;;3.88;2.45;;;24.40;51.00;;;;;;5040955;28;20037;-60
2021/09/09 04:17:46;;;;;;;2.90;2.30;;;24.40;50.90;;;;;;5063016;28;20112;-52
2021/09/09 04:20:12;;;;;;;3.05;2.55;;;24.40;51.00;;;;;;5044218;28;20029;-60
2021/09/09 04:22:38;;;;;;;4.28;2.40;;;24.40;51.00;;;;;;5039755;28;20091;-60
2021/09/09 04:25:05;;;;;;;2.90;2.30;;;24.40;51.00;;;;;;5034003;28;20115;-58
2021/09/09 04:27:31;;;;;;;2.47;2.10;;;24.40;51.00;;;;;;5037422;28;20751;-58
2021/09/09 04:29:58;;;;;;;2.75;2.28;;;24.40;51.00;;;;;;5048584;28;20178;-51
2021/09/09 04:32:24;;;;;;;2.63;2.25;;;24.40;51.00;;;;;;5040634;28;20183;-55
2021/09/09 04:34:50;;;;;;;3.15;2.47;;;24.40;51.00;;;;;;5040260;28;20108;-52
2021/09/09 04:37:16;;;;;;;3.33;2.40;;;24.40;51.00;;;;;;5044684;28;20041;-55
2021/09/09 04:39:42;;;;;;;2.88;2.25;;;24.30;50.90;;;;;;5035667;28;20021;-54
2021/09/09 04:42:07;;;;;;;2.83;2.42;;;24.30;50.90;;;;;;5033404;28;20025;-61
2021/09/09 04:44:33;;;;;;;2.67;2.30;;;24.40;51.00;;;;;;5031635;28;20029;-53
2021/09/09 04:46:58;;;;;;;3.08;2.38;;;24.30;51.30;;;;;;5039183;28;20047;-58
2021/09/09 04:49:24;;;;;;;3.15;2.40;;;24.40;51.00;;;;;;5034124;28;20435;-58
2021/09/09 04:51:50;;;;;;;2.75;2.00;;;24.30;51.00;;;;;;5045426;28;20043;-57
2021/09/09 04:54:15;;;;;;;2.85;2.35;;;24.30;51.00;;;;;;5045295;28;20036;-61
2021/09/09 04:56:41;;;;;;;2.78;2.33;;;24.30;51.00;;;;;;5043788;28;20036;-56
2021/09/09 04:59:06;;;;;;;3.00;2.15;;;24.30;51.00;;;;;;5031033;28;20045;-58
2021/09/09 05:01:32;;;;;;;2.90;2.40;;;24.30;51.00;;;;;;5032449;28;20038;-55
2021/09/09 05:03:58;;;;;;;2.83;2.25;;;24.30;51.00;;;;;;5033408;28;20049;-47
2021/09/09 05:06:23;;;;;;;2.90;2.38;;;24.30;51.00;;;;;;5039419;28;20044;-61
2021/09/09 05:08:49;;;;;;;2.88;2.50;;;24.30;51.00;;;;;;5049351;28;20052;-50
2021/09/09 05:11:17;;;;;;;2.95;2.38;;;24.30;51.00;;;;;;5048255;28;20036;-61
2021/09/09 05:13:43;;;;;;;2.78;2.30;;;24.30;51.00;;;;;;5045624;28;20125;-52
2021/09/09 05:16:09;;;;;;;2.90;2.40;;;24.30;51.10;;;;;;5048683;28;20036;-58
2021/09/09 05:18:35;;;;;;;2.80;2.47;;;24.30;51.00;;;;;;5035031;28;20033;-60
2021/09/09 05:21:00;;;;;;;3.00;2.40;;;24.30;51.00;;;;;;5038313;28;20393;-57
2021/09/09 05:23:26;;;;;;;3.08;2.50;;;24.30;51.00;;;;;;5048082;28;20343;-52
2021/09/09 05:25:52;;;;;;;3.10;2.40;;;24.30;51.10;;;;;;5042040;28;20036;-54
2021/09/09 05:28:18;;;;;;;3.00;2.35;;;24.30;51.00;;;;;;5033292;28;20082;-55
2021/09/09 05:30:43;;;;;;;2.38;1.90;;;24.30;51.00;;;;;;5041948;28;20037;-57
2021/09/09 05:33:09;;;;;;;3.15;2.40;;;24.20;51.00;;;;;;5040442;28;20108;-56
2021/09/09 05:35:35;;;;;;;2.85;2.30;;;24.30;51.10;;;;;;5044607;28;20489;-55
2021/09/09 05:38:01;;;;;;;2.47;2.10;;;24.30;51.10;;;;;;5031579;28;20450;-56
2021/09/09 05:40:27;;;;;;;3.10;2.40;;;24.20;51.00;;;;;;5049267;28;20056;-59
2021/09/09 05:42:53;;;;;;;3.10;2.53;;;24.20;51.00;;;;;;5041108;28;20491;-58
2021/09/09 05:45:18;;;;;;;2.80;2.40;;;24.30;51.10;;;;;;5038716;28;20389;-55
2021/09/09 05:47:44;;;;;;;3.63;2.55;;;24.30;51.00;;;;;;5036169;28;20044;-59
2021/09/09 05:50:10;;;;;;;3.50;3.00;;;24.20;50.70;;;;;;5030014;28;20040;-55
2021/09/09 05:52:36;;;;;;;4.38;3.40;;;24.20;50.30;;;;;;5040342;28;21928;-56
2021/09/09 05:55:02;;;;;;;4.78;3.72;;;24.20;50.00;;;;;;5045621;28;20039;-56
2021/09/09 05:57:28;;;;;;;5.53;4.28;;;24.30;49.90;;;;;;5045486;28;20035;-57
2021/09/09 05:59:53;;;;;;;6.25;4.93;;;24.40;49.50;;;;;;5039061;28;20025;-59
2021/09/09 06:02:19;;;;;;;5.65;4.40;;;24.50;49.10;;;;;;5028078;28;20040;-58
2021/09/09 06:04:47;;;;;;;6.90;5.05;;;24.60;49.00;;;;;;5037493;28;20044;-59
2021/09/09 06:07:13;;;;;;;6.13;5.00;;;24.60;48.50;;;;;;5029584;28;20401;-59
2021/09/09 06:09:40;;;;;;;5.60;4.70;;;24.70;48.50;;;;;;5035901;28;20029;-59
2021/09/09 06:12:06;;;;;;;5.38;4.68;;;24.80;48.50;;;;;;5047010;28;20037;-59
2021/09/09 06:14:32;;;;;;;7.15;5.00;;;24.90;48.40;;;;;;5037410;28;20029;-52
2021/09/09 06:16:58;;;;;;;6.05;5.00;;;24.90;48.30;;;;;;5041436;28;20370;-59
2021/09/09 06:19:24;;;;;;;6.53;5.28;;;25.00;48.40;;;;;;5037163;28;20029;-60
2021/09/09 06:21:50;;;;;;;5.82;4.72;;;25.10;48.30;;;;;;5040958;28;20024;-60
2021/09/09 06:24:16;;;;;;;6.13;4.90;;;25.10;48.20;;;;;;5031271;28;20322;-57
2021/09/09 06:26:42;;;;;;;5.65;4.88;;;25.20;48.00;;;;;;5040500;28;20132;-59
2021/09/09 06:29:07;;;;;;;5.63;4.60;;;25.20;47.90;;;;;;5042183;28;20037;-59
2021/09/09 06:31:33;;;;;;;5.75;4.80;;;25.30;47.90;;;;;;5040670;28;20044;-59
2021/09/09 06:33:59;;;;;;;6.07;5.07;;;25.40;47.80;;;;;;5038343;28;20055;-50
2021/09/09 06:36:24;;;;;;;4.70;4.07;;;25.40;47.60;;;;;;5040921;28;20061;-58
2021/09/09 06:38:50;;;;;;;5.55;4.95;;;25.40;47.50;;;;;;5033359;28;20029;-54
2021/09/09 06:41:15;;;;;;;7.40;4.72;;;25.40;47.60;;;;;;5032607;28;20116;-57
2021/09/09 06:43:41;;;;;;;5.35;4.25;;;25.40;47.50;;;;;;5037190;28;20123;-60
2021/09/09 06:46:06;;;;;;;5.80;4.82;;;25.40;47.60;;;;;;5028990;28;20067;-59
2021/09/09 06:48:32;;;;;;;4.97;4.35;;;25.40;47.60;;;;;;5032072;28;20116;-51
2021/09/09 06:51:00;;;;;;;5.78;4.97;;;25.40;47.60;;;;;;5042389;28;20052;-52
2021/09/09 06:53:26;;;;;;;5.00;4.18;;;25.40;47.60;;;;;;5042019;28;20036;-54
2021/09/09 06:55:52;;;;;;;4.90;4.18;;;25.40;47.70;;;;;;5048082;28;20025;-56
2021/09/09 06:58:17;;;;;;;5.25;4.47;;;25.40;47.60;;;;;;5049974;28;20028;-60
2021/09/09 07:00:43;;;;;;;5.50;4.32;;;25.40;47.60;;;;;;5030328;28;20468;-53
2021/09/09 07:03:09;;;;;;;5.25;4.50;;;25.40;47.50;;;;;;5045690;28;20041;-58
2021/09/09 07:05:35;;;;;;;6.22;4.68;;;25.40;47.50;;;;;;5033097;28;20136;-57
2021/09/09 07:08:01;;;;;;;5.88;4.55;;;25.40;47.50;;;;;;5031600;28;20178;-51
2021/09/09 07:10:26;;;;;;;5.90;4.22;;;25.40;47.60;;;;;;5040104;28;20086;-61
2021/09/09 07:12:52;;;;;;;5.85;4.40;;;25.40;47.60;;;;;;5034192;28;20071;-59
2021/09/09 07:15:18;;;;;;;4.82;4.00;;;25.40;47.50;;;;;;5041362;28;20383;-58
2021/09/09 07:17:43;;;;;;;5.10;4.40;;;25.50;47.60;;;;;;5044943;28;20370;-58
2021/09/09 07:20:10;;;;;;;4.82;4.13;;;25.50;47.60;;;;;;5045450;28;20113;-57
2021/09/09 07:22:35;;;;;;;4.40;4.00;;;25.40;47.60;;;;;;5049720;28;20453;-59
2021/09/09 07:25:01;;;;;;;4.80;4.10;;;25.50;47.60;;;;;;5046376;28;20051;-58
2021/09/09 07:27:27;;;;;;;5.50;4.35;;;25.50;47.70;;;;;;5046678;28;20104;-61
2021/09/09 07:29:52;;;;;;;5.30;3.90;;;25.50;47.60;;;;;;5045454;28;20804;-55
2021/09/09 07:32:18;;;;;;;4.43;3.95;;;25.50;47.70;;;;;;5043306;28;20033;-52
2021/09/09 07:34:44;;;;;;;4.45;3.80;;;25.50;47.70;;;;;;5030264;28;20032;-55
2021/09/09 07:37:09;;;;;;;4.80;4.30;;;25.50;47.70;;;;;;5032112;28;20033;-51
2021/09/09 07:39:35;;;;;;;5.82;4.28;;;25.50;47.70;;;;;;5030520;28;20025;-58
2021/09/09 07:42:01;;;;;;;4.22;3.83;;;25.50;47.70;;;;;;5034674;28;20032;-59
2021/09/09 07:44:26;;;;;;;4.97;3.75;;;25.60;47.80;;;;;;5047636;28;20041;-58
2021/09/09 07:46:52;;;;;;;4.65;4.00;;;25.60;47.80;;;;;;5040729;28;20061;-58
2021/09/09 07:49:17;;;;;;;4.57;3.97;;;25.60;47.90;;;;;;5030713;28;20025;-51
2021/09/09 07:51:45;;;;;;;6.22;3.53;;;25.60;48.00;;;;;;5037080;28;20033;-59
2021/09/09 07:54:11;;;;;;;5.75;4.28;;;25.60;48.10;;;;;;5048392;28;20029;-55
2021/09/09 07:56:36;;;;;;;4.88;4.07;;;25.50;48.00;;;;;;5059931;28;20040;-56
2021/09/09 07:59:02;;;;;;;5.07;3.83;;;25.60;48.10;;;;;;5048165;28;20032;-55
2021/09/09 08:01:28;;;;;;;4.95;3.90;;;25.50;48.60;;;;;;5044035;28;20798;-50
2021/09/09 08:03:53;;;;;;;4.38;3.60;;;25.60;48.10;;;;;;5042594;28;20128;-60
2021/09/09 08:06:19;;;;;;;4.40;3.92;;;25.60;48.10;;;;;;5030062;28;20685;-58
2021/09/09 08:08:45;;;;;;;4.50;4.00;;;25.60;48.10;;;;;;5035014;28;20028;-54
2021/09/09 08:11:10;;;;;;;4.72;4.03;;;25.70;48.10;;;;;;5046012;28;20134;-52
2021/09/09 08:13:36;;;;;;;4.43;3.80;;;25.60;48.00;;;;;;5046783;28;20434;-55
2021/09/09 08:16:02;;;;;;;4.88;3.90;;;25.60;48.00;;;;;;5052280;28;20037;-60
2021/09/09 08:18:28;;;;;;;5.68;3.97;;;25.70;48.10;;;;;;5046798;28;20030;-56
2021/09/09 08:20:54;;;;;;;4.65;3.90;;;25.70;48.10;;;;;;5055977;28;20025;-55
2021/09/09 08:23:21;;;;;;;5.35;3.88;;;25.70;48.40;;;;;;5046373;28;20040;-54
2021/09/09 08:25:47;;;;;;;5.63;4.00;;;25.70;48.10;;;;;;5048394;28;20033;-58
2021/09/09 08:28:12;;;;;;;3.95;3.20;;;25.70;48.10;;;;;;5045524;28;20037;-59
2021/09/09 08:30:38;;;;;;;5.15;4.00;;;25.70;48.20;;;;;;5039640;28;20041;-58
2021/09/09 08:33:04;;;;;;;3.97;3.53;;;25.70;48.20;;;;;;5033332;28;20092;-60
2021/09/09 08:35:29;;;;;;;4.22;3.70;;;25.70;48.30;;;;;;5035074;28;20033;-56
2021/09/09 08:37:55;;;;;;;3.83;3.42;;;25.70;48.30;;;;;;5039101;28;20037;-58
2021/09/09 08:40:22;;;;;;;4.03;3.42;;;25.70;48.30;;;;;;5038761;28;20029;-61
2021/09/09 08:42:48;;;;;;;5.20;3.70;;;25.70;48.30;;;;;;5038658;28;20061;-55
2021/09/09 08:45:14;;;;;;;4.00;3.60;;;25.70;48.30;;;;;;5031192;28;20371;-58
2021/09/09 08:47:41;;;;;;;3.63;3.22;;;25.70;48.30;;;;;;5037433;28;20489;-61
2021/09/09 08:50:08;;;;;;;4.60;3.50;;;25.70;48.40;;;;;;5051880;28;20029;-59
2021/09/09 08:52:38;;;;;;;4.15;3.72;;;25.70;48.40;;;;;;5047660;28;20460;-58
2021/09/09 08:55:04;;;;;;;4.50;3.40;;;25.70;48.40;;;;;;5036362;28;20041;-55
2021/09/09 08:57:32;;;;;;;4.93;3.60;;;25.70;48.30;;;;;;5043086;28;20032;-53
2021/09/09 08:59:58;;;;;;;4.60;3.63;;;25.70;48.20;;;;;;5040243;28;20030;-55
2021/09/09 09:02:24;;;;;;;4.45;3.53;;;25.80;48.30;;;;;;5044694;28;20039;-55
2021/09/09 09:05:07;;;;;;;4.90;3.88;;;25.80;48.20;;;;;;5044174;28;20033;-60
2021/09/09 09:07:35;;;;;;;4.63;3.60;;;25.80;48.20;;;;;;5042507;28;20029;-56
2021/09/09 09:10:05;;;;;;;4.72;3.60;;;25.80;47.80;;;;;;5045565;28;20033;-51
2021/09/09 09:12:38;;;;;;;4.93;3.40;;;25.80;48.20;;;;;;5040718;28;20107;-58
2021/09/09 09:15:29;;;;;;;4.15;3.20;;;25.80;48.20;;;;;;5046388;28;20099;-60
2021/09/09 09:18:08;;;;;;;3.70;3.33;;;25.80;48.30;;;;;;5031901;28;20051;-59
2021/09/09 09:20:45;;;;;;;4.13;3.50;;;25.80;48.30;;;;;;5027616;28;20121;-53
2021/09/09 09:23:21;;;;;;;4.43;3.65;;;25.80;48.40;;;;;;5037391;28;20083;-57
2021/09/09 09:26:03;;;;;;;4.30;3.72;;;25.80;48.30;;;;;;5040101;28;22548;-55
2021/09/09 09:28:44;;;;;;;3.95;3.40;;;25.80;48.30;;;;;;5047009;28;20528;-52
2021/09/09 09:31:11;;;;;;;4.10;3.63;;;25.80;48.30;;;;;;5039831;28;20097;-51
2021/09/09 09:33:40;;;;;;;4.65;3.78;;;25.80;48.30;;;;;;5043509;28;20029;-54
2021/09/09 09:36:11;;;;;;;4.68;3.60;;;25.80;48.20;;;;;;5040080;28;20111;-51
2021/09/09 09:38:37;;;;;;;4.75;3.50;;;25.80;48.30;;;;;;5055009;28;20112;-52
2021/09/09 09:41:04;;;;;;;3.78;3.38;;;25.90;48.40;;;;;;5046644;28;20400;-59
2021/09/09 09:43:30;;;;;;;5.75;3.72;;;25.80;48.30;;;;;;5037473;28;20363;-59
2021/09/09 09:45:58;;;;;;;4.03;3.47;;;25.90;48.30;;;;;;5047159;28;20024;-60
2021/09/09 09:48:33;;;;;;;4.20;3.60;;;25.90;48.30;;;;;;5039338;28;20049;-49
2021/09/09 09:50:59;;;;;;;3.70;3.15;;;25.90;48.40;;;;;;5038161;28;20091;-56
2021/09/09 09:53:24;;;;;;;3.80;3.30;;;25.90;48.30;;;;;;5046748;28;20032;-53
2021/09/09 09:55:50;;;;;;;3.75;3.13;;;25.90;48.30;;;;;;5033751;28;20029;-54
2021/09/09 09:58:16;;;;;;;4.07;3.50;;;25.90;48.30;;;;;;5042920;28;20511;-59
2021/09/09 10:00:42;;;;;;;3.92;3.17;;;25.90;48.40;;;;;;5033610;28;20033;-48
2021/09/09 10:03:08;;;;;;;3.85;3.00;;;25.90;48.30;;;;;;5040793;28;20025;-60
2021/09/09 10:05:38;;;;;;;5.00;3.67;;;26.00;48.40;;;;;;5050409;28;20087;-61
2021/09/09 10:08:08;;;;;;;4.00;3.60;;;25.90;48.40;;;;;;5035972;28;20063;-53
2021/09/09 10:10:34;;;;;;;3.80;3.10;;;25.90;48.40;;;;;;5043737;28;20035;-52
2021/09/09 10:13:00;;;;;;;3.95;3.15;;;25.90;48.40;;;;;;5038606;28;20060;-60
2021/09/09 10:15:27;;;;;;;3.95;3.30;;;26.00;48.40;;;;;;5043398;28;20033;-54
2021/09/09 10:17:55;;;;;;;4.25;3.40;;;26.00;48.50;;;;;;5045312;28;20494;-60
2021/09/09 10:20:30;;;;;;;4.05;3.45;;;26.00;48.50;;;;;;5039051;28;20099;-57
2021/09/09 10:23:09;;;;;;;3.85;3.30;;;26.00;48.50;;;;;;5043427;28;20055;-52
2021/09/09 10:25:48;;;;;;;3.85;3.13;;;26.00;48.50;;;;;;5038193;28;20353;-59
2021/09/09 10:28:50;;;;;;;4.07;3.55;;;26.00;48.60;;;;;;5030004;28;20029;-52
2021/09/09 10:31:24;;;;;;;4.68;3.20;;;26.00;48.60;;;;;;5038802;28;20118;-50
2021/09/09 10:33:53;;;;;;;3.88;3.30;;;26.00;48.50;;;;;;5042316;28;20028;-59
2021/09/09 10:36:45;;;;;;;4.10;3.17;;;26.00;48.60;;;;;;5040954;28;20067;-57
2021/09/09 10:39:41;;;;;;;3.97;3.08;;;26.00;48.60;;;;;;5032080;28;20116;-56
2021/09/09 10:42:37;;;;;;;3.90;3.28;;;26.10;48.60;;;;;;5041768;28;20079;-59
2021/09/09 10:45:04;;;;;;;4.13;3.60;;;26.00;48.60;;;;;;5034853;28;20033;-59
2021/09/09 10:47:47;;;;;;;3.53;3.17;;;26.00;48.60;;;;;;5040243;28;20151;-53
2021/09/09 10:50:13;;;;;;;4.05;3.47;;;26.10;49.20;;;;;;5045037;28;20160;-54
2021/09/09 10:52:59;;;;;;;3.95;3.38;;;26.10;48.70;;;;;;5043171;28;20196;-57
2021/09/09 10:55:26;;;;;;;3.58;3.28;;;26.00;48.60;;;;;;5033457;28;20028;-52
2021/09/09 10:58:26;;;;;;;3.47;3.17;;;26.10;48.70;;;;;;5029029;28;20041;-59
2021/09/09 11:00:58;;;;;;;4.82;3.50;;;26.10;48.70;;;;;;5043755;28;20647;-52
2021/09/09 11:03:49;;;;;;;3.55;2.90;;;26.10;48.70;;;;;;5032251;28;20461;-59
2021/09/09 11:06:16;;;;;;;4.05;3.30;;;26.10;48.70;;;;;;5042759;28;20047;-60
2021/09/09 11:08:44;;;;;;;3.42;3.03;;;26.10;48.70;;;;;;5041434;28;20039;-58
2021/09/09 11:11:23;;;;;;;3.80;3.35;;;26.10;48.70;;;;;;5036950;28;20304;-57
2021/09/09 11:13:56;;;;;;;;;;;26.20;48.80;;;;;;5041391;28;20057;-57
2021/09/09 11:16:23;;;;;;;3.63;3.15;;;26.20;48.80;;;;;;5035492;28;19951;-59
2021/09/09 11:18:50;;;;;;;3.83;2.95;;;26.20;48.80;;;;;;5035778;28;20457;-58
2021/09/09 11:21:21;;;;;;;3.60;2.90;;;26.20;48.80;;;;;;5043195;28;20037;-52
2021/09/09 11:23:48;;;;;;;4.40;3.00;;;26.20;48.80;;;;;;5035252;28;20183;-59
2021/09/09 11:26:19;;;;;;;4.45;2.97;;;26.20;49.00;;;;;;5045284;28;20090;-56
2021/09/09 11:28:47;;;;;;;3.40;2.88;;;26.20;48.90;;;;;;5029759;28;20033;-58
2021/09/09 11:31:19;;;;;;;3.70;3.30;;;26.20;48.90;;;;;;5035833;28;20163;-55
2021/09/09 11:34:11;;;;;;;4.95;3.10;;;26.20;48.90;;;;;;5034408;28;20048;-58
2021/09/09 11:36:42;;;;;;;3.75;3.17;;;26.20;48.90;;;;;;5040225;28;20037;-56
2021/09/09 11:39:10;;;;;;;3.60;3.10;;;26.20;48.90;;;;;;5032672;28;20029;-58
2021/09/09 11:41:37;;;;;;;4.10;3.03;;;26.20;48.90;;;;;;5038393;28;20076;-58
2021/09/09 11:44:08;;;;;;;3.65;3.10;;;26.20;48.80;;;;;;5038622;28;20029;-54
2021/09/09 11:46:36;;;;;;;3.13;2.78;;;26.20;48.90;;;;;;5043266;28;20029;-59
2021/09/09 11:49:03;;;;;;;4.15;3.13;;;26.30;48.90;;;;;;5034809;28;20480;-58
2021/09/09 11:51:36;;;;;;;3.50;2.85;;;26.20;48.90;;;;;;5032390;28;20375;-53
2021/09/09 11:54:07;;;;;;;4.03;2.72;;;26.30;49.00;;;;;;5045521;28;20113;-59
2021/09/09 11:56:34;;;;;;;4.07;2.95;;;26.20;48.90;;;;;;5040813;28;20052;-57
2021/09/09 11:59:03;;;;;;;3.50;2.97;;;26.20;48.90;;;;;;5041391;28;20037;-58
2021/09/09 12:01:31;;;;;;;3.20;2.80;;;26.30;48.90;;;;;;5036967;28;20405;-60
2021/09/09 12:03:58;;;;;;;3.53;2.92;;;26.30;49.00;;;;;;5053585;28;20032;-58
2021/09/09 12:06:25;;;;;;;3.45;2.70;;;26.30;49.00;;;;;;5035499;28;20045;-55
2021/09/09 12:08:51;;;;;;;3.20;2.72;;;26.30;49.00;;;;;;5041414;28;20036;-52
2021/09/09 12:11:17;;;;;;;3.45;3.03;;;26.30;49.00;;;;;;5045108;28;20025;-51
2021/09/09 12:13:46;;;;;;;3.50;2.95;;;26.30;49.00;;;;;;5038028;28;20139;-58
2021/09/09 12:16:12;;;;;;;3.20;2.75;;;26.30;49.00;;;;;;5039491;28;20033;-59
2021/09/09 12:18:38;;;;;;;3.80;2.70;;;26.30;48.90;;;;;;5038360;28;20117;-52
2021/09/09 12:21:15;;;;;;;3.85;2.70;;;26.30;49.00;;;;;;5031864;28;20100;-58
2021/09/09 12:24:04;;;;;;;3.47;2.67;;;26.30;49.70;;;;;;5036311;28;20087;-59
2021/09/09 12:26:31;;;;;;;3.10;2.50;;;26.30;49.20;;;;;;5039418;28;20029;-50
2021/09/09 12:28:57;;;;;;;3.83;2.95;;;26.30;49.30;;;;;;5030530;28;20115;-59
2021/09/09 12:31:36;;;;;;;4.50;3.00;;;26.30;49.30;;;;;;5045090;28;20064;-55
2021/09/09 12:34:18;;;;;;;3.33;3.00;;;26.30;49.20;;;;;;5028885;28;20030;-56
2021/09/09 12:36:45;;;;;;;3.60;3.10;;;26.40;49.10;;;;;;5039247;28;20458;-57
2021/09/09 12:39:12;;;;;;;3.35;2.70;;;26.40;49.10;;;;;;5034099;28;20021;-56
2021/09/09 12:41:38;;;;;;;3.70;3.28;;;26.40;49.10;;;;;;5040851;28;20024;-56
2021/09/09 12:44:03;;;;;;;3.72;3.00;;;26.40;49.40;;;;;;5044978;28;20052;-58
2021/09/09 12:46:35;;;;;;;3.80;3.00;;;26.40;49.00;;;;;;5046638;28;20121;-58
2021/09/09 12:49:06;;;;;;;3.72;2.90;;;26.40;49.00;;;;;;5046090;28;20040;-58
2021/09/09 12:51:34;;;;;;;3.85;2.70;;;26.40;49.00;;;;;;5048639;28;20029;-51